Time;durP1;ratioP1;P1;durP2;ratioP2;P2;SDS_P1;SDS_P2;PMS_P1;PMS_P2;Temp;Humidity;BMP_temperature;BMP_pressure;BME280_temperature;BME280_humidity;BME280_pressure;Samples;Min_cycle;Max_cycle;Signal;HPM_P1;HPM_P2
2022/12/26 00:02:10;;;;;;;4.53;4.13;;;;;;;;;;5018564;28;20136;-87
2022/12/26 00:04:37;;;;;;;6.13;4.82;;;;;;;;;;5018646;28;20050;-87
2022/12/26 00:07:18;;;;;;;4.32;4.00;;;;;;;;;;5020814;28;20058;-86
2022/12/26 00:09:45;;;;;;;4.75;4.32;;;;;;;;;;5018759;28;20056;-88
2022/12/26 00:12:13;;;;;;;4.28;3.88;;;;;;;;;;5018616;28;20457;-88
2022/12/26 00:14:40;;;;;;;10.30;5.03;;;;;;;;;;5018518;28;20069;-87
2022/12/26 00:17:08;;;;;;;4.65;4.05;;;;;;;;;;5018495;28;20049;-87
2022/12/26 00:19:35;;;;;;;4.00;3.70;;;;;;;;;;5018579;28;20046;-89
2022/12/26 00:22:02;;;;;;;4.82;3.88;;;;;;;;;;5018612;28;20055;-88
2022/12/26 00:24:30;;;;;;;4.05;3.75;;;;;;;;;;5018597;28;20069;-88
2022/12/26 00:26:57;;;;;;;5.63;3.85;;;;;;;;;;5018231;28;20220;-88
2022/12/26 00:29:24;;;;;;;5.50;3.97;;;;;;;;;;5018118;28;20050;-87
2022/12/26 00:31:51;;;;;;;6.13;3.95;;;;;;;;;;5018519;28;20132;-87
2022/12/26 00:34:19;;;;;;;4.75;3.60;;;;;;;;;;5018178;28;20509;-86
2022/12/26 00:36:46;;;;;;;4.20;3.72;;;;;;;;;;5018610;28;20060;-87
2022/12/26 00:39:13;;;;;;;4.35;3.70;;;;;;;;;;5018220;28;20057;-88
2022/12/26 00:41:40;;;;;;;5.60;3.75;;;;;;;;;;5018642;28;20063;-88
2022/12/26 00:44:07;;;;;;;4.60;3.88;;;;;;;;;;5018171;28;20136;-88
2022/12/26 00:46:34;;;;;;;5.82;3.75;;;;;;;;;;5018311;28;20045;-88
2022/12/26 00:49:03;;;;;;;4.13;3.72;;;;;;;;;;5018154;28;20049;-87
2022/12/26 00:51:30;;;;;;;4.82;3.45;;;;;;;;;;5018370;28;20099;-88
2022/12/26 00:53:59;;;;;;;5.00;3.55;;;;;;;;;;5017922;28;20056;-88
2022/12/26 00:56:26;;;;;;;3.78;3.28;;;;;;;;;;5017928;28;20049;-88
2022/12/26 00:58:54;;;;;;;3.38;3.05;;;;;;;;;;5035468;28;20049;-87
2022/12/26 01:01:22;;;;;;;3.83;3.35;;;;;;;;;;5017630;28;20049;-88
2022/12/26 01:03:50;;;;;;;3.22;2.92;;;;;;;;;;5035129;28;20053;-87
2022/12/26 01:06:17;;;;;;;7.82;3.45;;;;;;;;;;5017495;28;20041;-88
2022/12/26 01:08:45;;;;;;;6.10;3.40;;;;;;;;;;5017959;28;20116;-88
2022/12/26 01:11:13;;;;;;;3.63;3.33;;;;;;;;;;5017930;28;20049;-87
2022/12/26 01:13:40;;;;;;;4.65;3.33;;;;;;;;;;5018506;28;20054;-87
2022/12/26 01:16:08;;;;;;;5.18;3.30;;;;;;;;;;5017311;28;20493;-88
2022/12/26 01:18:35;;;;;;;3.72;3.42;;;;;;;;;;5017550;28;20409;-88
2022/12/26 01:21:06;;;;;;;4.07;3.75;;;;;;;;;;5017385;28;20136;-88
2022/12/26 01:23:34;;;;;;;4.72;3.22;;;;;;;;;;5017385;28;20136;-87
2022/12/26 01:26:02;;;;;;;4.57;3.47;;;;;;;;;;5017333;28;20144;-87
2022/12/26 01:28:46;;;;;;;6.07;3.63;;;;;;;;;;5018523;28;20051;-87
2022/12/26 01:31:13;;;;;;;3.63;3.42;;;;;;;;;;5017359;28;20052;-87
2022/12/26 01:33:40;;;;;;;3.65;3.35;;;;;;;;;;5017287;28;20140;-87
2022/12/26 01:36:08;;;;;;;6.78;3.90;;;;;;;;;;5017058;28;20088;-87
2022/12/26 01:38:35;;;;;;;5.18;3.63;;;;;;;;;;5017313;28;20405;-88
2022/12/26 01:41:20;;;;;;;3.00;2.80;;;;;;;;;;5017093;28;20128;-88
2022/12/26 01:43:51;;;;;;;4.97;3.47;;;;;;;;;;5017213;28;20137;-88
2022/12/26 01:46:23;;;;;;;4.03;3.00;;;;;;;;;;5016738;28;20054;-87
2022/12/26 01:48:51;;;;;;;3.40;3.00;;;;;;;;;;5017073;28;20057;-87
2022/12/26 01:51:21;;;;;;;4.03;2.90;;;;;;;;;;5017011;28;20049;-88
2022/12/26 01:53:51;;;;;;;3.50;3.15;;;;;;;;;;5016802;28;20056;-87
2022/12/26 01:56:21;;;;;;;3.80;3.08;;;;;;;;;;5016800;28;20504;-87
2022/12/26 01:58:53;;;;;;;3.30;3.08;;;;;;;;;;5016471;28;20049;-88
2022/12/26 02:01:22;;;;;;;3.83;3.45;;;;;;;;;;5016761;28;20057;-88
2022/12/26 02:06:35;;;;;;;3.15;2.92;;;;;;;;;;5034068;28;20075;-87
2022/12/26 02:09:02;;;;;;;2.95;2.67;;;;;;;;;;5016485;28;20049;-87
2022/12/26 02:11:42;;;;;;;3.90;3.10;;;;;;;;;;5016585;28;20053;-88
2022/12/26 02:14:10;;;;;;;4.30;3.20;;;;;;;;;;5016666;28;20057;-87
2022/12/26 02:16:38;;;;;;;6.68;3.25;;;;;;;;;;5015826;28;20052;-87
2022/12/26 02:19:07;;;;;;;2.60;2.47;;;;;;;;;;5016686;28;20045;-87
2022/12/26 02:21:52;;;;;;;3.20;2.90;;;;;;;;;;5016613;28;20055;-88
2022/12/26 02:24:22;;;;;;;3.00;2.80;;;;;;;;;;5016385;28;20124;-87
2022/12/26 02:27:10;;;;;;;3.72;3.33;;;;;;;;;;5033822;28;20049;-86
2022/12/26 02:29:40;;;;;;;3.55;2.97;;;;;;;;;;5016213;28;20050;-87
2022/12/26 02:32:15;;;;;;;3.20;3.00;;;;;;;;;;5016315;28;20405;-88
2022/12/26 02:34:49;;;;;;;3.30;3.00;;;;;;;;;;5016502;28;20132;-87
2022/12/26 02:37:35;;;;;;;3.75;2.88;;;;;;;;;;5015988;28;20516;-87
2022/12/26 02:40:07;;;;;;;7.07;3.17;;;;;;;;;;5016181;28;20056;-87
2022/12/26 02:42:46;;;;;;;2.63;2.42;;;;;;;;;;5016146;28;20054;-87
2022/12/26 02:48:14;;;;;;;6.00;3.10;;;;;;;;;;5033444;28;20488;-87
2022/12/26 03:14:05;;;;;;;4.32;2.83;;;;;;;;;;5032922;28;20406;-87
2022/12/26 03:19:20;;;;;;;4.45;3.08;;;;;;;;;;5033180;28;20049;-87
2022/12/26 03:21:47;;;;;;;3.05;2.85;;;;;;;;;;5015823;28;20387;-87
2022/12/26 03:24:15;;;;;;;3.60;3.22;;;;;;;;;;5015744;28;20053;-87
2022/12/26 03:26:49;;;;;;;2.70;2.50;;;;;;;;;;5033205;28;20054;-87
2022/12/26 03:32:05;;;;;;;4.38;3.22;;;;;;;;;;5036662;28;20050;-87
2022/12/26 03:34:33;;;;;;;2.75;2.30;;;;;;;;;;5036624;28;20049;-87
2022/12/26 03:37:10;;;;;;;4.75;2.35;;;;;;;;;;5019212;28;20132;-87
2022/12/26 04:19:37;;;;;;;3.83;2.30;;;;;;;;;;5035925;28;20406;-87
2022/12/26 04:45:21;;;;;;;2.20;2.10;;;;;;;;;;5035703;28;20529;-87
2022/12/26 04:50:35;;;;;;;2.55;2.35;;;;;;;;;;5035782;28;20107;-87
2022/12/26 04:53:02;;;;;;;4.20;2.17;;;;;;;;;;5018122;28;20045;-87
2022/12/26 04:55:31;;;;;;;4.18;2.00;;;;;;;;;;5018037;28;20054;-87
2022/12/26 04:57:59;;;;;;;2.90;1.95;;;;;;;;;;5017962;28;20138;-87
2022/12/26 05:00:27;;;;;;;3.10;1.80;;;;;;;;;;5002789;28;20057;-87
2022/12/26 05:11:20;;;;;;;3.55;2.65;;;;;;;;;;5015144;28;20088;-87
2022/12/26 05:13:47;;;;;;;3.22;2.40;;;;;;;;;;4998274;28;20461;-86
2022/12/26 05:30:06;;;;;;;3.30;2.20;;;;;;;;;;5014957;28;20088;-87
2022/12/26 05:35:19;;;;;;;3.97;2.45;;;;;;;;;;5014940;28;20419;-87
2022/12/26 05:37:47;;;;;;;5.93;2.42;;;;;;;;;;4997228;28;20046;-87
2022/12/26 05:40:14;;;;;;;3.05;2.25;;;;;;;;;;4997220;28;20052;-87
2022/12/26 05:42:41;;;;;;;2.42;2.10;;;;;;;;;;5014669;28;20050;-87
2022/12/26 05:45:09;;;;;;;4.80;2.65;;;;;;;;;;4997220;28;20057;-87
2022/12/26 05:47:36;;;;;;;2.53;2.33;;;;;;;;;;5014814;28;20065;-87
2022/12/26 05:50:03;;;;;;;4.53;2.42;;;;;;;;;;4996295;28;20399;-88
2022/12/26 05:52:30;;;;;;;3.35;2.45;;;;;;;;;;4997252;28;20063;-87
2022/12/26 05:54:57;;;;;;;6.07;2.50;;;;;;;;;;4996906;28;20049;-87
2022/12/26 05:57:25;;;;;;;4.03;2.65;;;;;;;;;;4996379;28;20041;-87
2022/12/26 05:59:52;;;;;;;4.50;2.50;;;;;;;;;;4997221;28;20136;-88
2022/12/26 06:02:19;;;;;;;5.38;2.30;;;;;;;;;;4997080;28;20053;-88
2022/12/26 06:04:46;;;;;;;4.88;2.53;;;;;;;;;;4997044;28;20102;-87
2022/12/26 06:07:14;;;;;;;3.50;2.42;;;;;;;;;;4996722;28;20060;-86
2022/12/26 06:09:41;;;;;;;3.03;2.08;;;;;;;;;;5014409;28;20046;-87
2022/12/26 06:12:08;;;;;;;2.65;2.08;;;;;;;;;;4996744;28;20406;-88
2022/12/26 06:14:35;;;;;;;2.90;2.20;;;;;;;;;;4996672;28;20482;-87
2022/12/26 06:17:02;;;;;;;3.25;2.40;;;;;;;;;;4996465;28;20060;-87
2022/12/26 06:19:29;;;;;;;4.03;2.17;;;;;;;;;;4996875;28;20057;-86
2022/12/26 06:21:57;;;;;;;3.80;2.28;;;;;;;;;;4997024;28;20413;-87
2022/12/26 06:24:26;;;;;;;3.22;2.20;;;;;;;;;;4996900;28;20052;-86
2022/12/26 06:26:53;;;;;;;6.68;2.05;;;;;;;;;;4996630;28;20496;-87
2022/12/26 06:29:21;;;;;;;4.32;2.45;;;;;;;;;;4996639;28;20056;-87
2022/12/26 06:31:48;;;;;;;4.97;2.50;;;;;;;;;;4996558;28;20046;-86
2022/12/26 06:34:17;;;;;;;3.08;2.40;;;;;;;;;;4996502;28;20050;-87
2022/12/26 06:36:44;;;;;;;2.33;1.85;;;;;;;;;;4996482;28;20049;-87
2022/12/26 06:39:11;;;;;;;4.40;2.15;;;;;;;;;;5013522;28;20060;-87
2022/12/26 06:41:38;;;;;;;2.55;2.13;;;;;;;;;;4996625;28;20045;-86
2022/12/26 06:44:05;;;;;;;5.25;2.30;;;;;;;;;;4996234;28;20084;-87
2022/12/26 06:46:36;;;;;;;3.13;2.28;;;;;;;;;;4997211;28;20062;-87
2022/12/26 06:49:05;;;;;;;2.70;2.20;;;;;;;;;;4996528;28;20057;-87
2022/12/26 06:51:34;;;;;;;2.17;1.98;;;;;;;;;;5013498;28;20046;-87
2022/12/26 06:54:01;;;;;;;4.07;2.42;;;;;;;;;;5013452;28;20104;-87
2022/12/26 06:56:29;;;;;;;3.30;2.20;;;;;;;;;;5013583;28;20384;-87
2022/12/26 06:58:58;;;;;;;2.95;2.22;;;;;;;;;;4995942;28;20054;-86
2022/12/26 07:01:26;;;;;;;1.90;1.70;;;;;;;;;;5014913;28;20046;-87
2022/12/26 07:03:54;;;;;;;3.70;2.22;;;;;;;;;;5017542;28;20046;-87
2022/12/26 07:06:32;;;;;;;3.83;2.30;;;;;;;;;;5000470;28;20056;-87
2022/12/26 07:09:07;;;;;;;3.42;2.08;;;;;;;;;;5000349;28;20046;-87
2022/12/26 07:11:35;;;;;;;3.22;1.83;;;;;;;;;;5000029;28;20490;-87
2022/12/26 07:14:03;;;;;;;3.53;2.55;;;;;;;;;;4999933;28;20057;-88
2022/12/26 07:16:30;;;;;;;2.72;2.30;;;;;;;;;;5000237;28;20056;-87
2022/12/26 07:18:58;;;;;;;2.00;1.85;;;;;;;;;;4999849;28;20050;-88
2022/12/26 07:21:25;;;;;;;2.85;2.20;;;;;;;;;;5000151;28;20405;-86
2022/12/26 07:23:54;;;;;;;2.75;1.90;;;;;;;;;;5017320;28;20049;-87
2022/12/26 07:26:21;;;;;;;4.35;1.90;;;;;;;;;;5017318;28;20081;-87
2022/12/26 07:28:52;;;;;;;3.70;2.78;;;;;;;;;;5000451;28;20046;-87
2022/12/26 07:31:19;;;;;;;2.55;2.10;;;;;;;;;;4999904;28;20494;-88
2022/12/26 07:33:51;;;;;;;4.18;2.60;;;;;;;;;;5000240;28;20053;-87
2022/12/26 07:36:18;;;;;;;9.05;5.80;;;;;;;;;;4999988;28;20053;-86
2022/12/26 07:38:45;;;;;;;5.75;2.13;;;;;;;;;;4999829;28;20136;-85
2022/12/26 07:43:58;;;;;;;4.35;1.83;;;;;;;;;;5016813;28;20049;-87
2022/12/26 07:46:26;;;;;;;4.28;2.55;;;;;;;;;;4999763;28;20419;-88
2022/12/26 07:48:53;;;;;;;3.60;2.20;;;;;;;;;;4999511;28;20092;-87
2022/12/26 07:51:21;;;;;;;3.95;2.80;;;;;;;;;;4999529;28;20518;-87
2022/12/26 07:53:48;;;;;;;4.47;4.07;;;;;;;;;;4999375;28;20046;-87
2022/12/26 07:56:15;;;;;;;4.63;3.13;;;;;;;;;;5016960;28;20096;-87
2022/12/26 07:58:42;;;;;;;3.85;2.65;;;;;;;;;;4999398;28;20062;-87
2022/12/26 08:01:10;;;;;;;5.55;2.60;;;;;;;;;;5016486;28;20041;-88
2022/12/26 08:03:37;;;;;;;4.38;2.25;;;;;;;;;;4999377;28;20053;-87
2022/12/26 08:06:05;;;;;;;4.85;1.90;;;;;;;;;;5016512;28;20049;-87
2022/12/26 08:08:32;;;;;;;2.75;1.63;;;;;;;;;;4999799;28;20054;-87
2022/12/26 08:11:00;;;;;;;3.30;1.70;;;;;;;;;;4999276;28;20268;-86
2022/12/26 08:13:28;;;;;;;4.65;1.60;;;;;;;;;;4998263;28;20049;-87
2022/12/26 08:15:55;;;;;;;2.17;1.98;;;;;;;;;;4999197;28;20046;-87
2022/12/26 08:18:23;;;;;;;2.88;1.77;;;;;;;;;;4999103;28;20077;-87
2022/12/26 08:20:50;;;;;;;2.50;1.73;;;;;;;;;;4998865;28;20046;-87
2022/12/26 08:23:18;;;;;;;2.42;1.77;;;;;;;;;;4998990;28;20042;-87
2022/12/26 08:25:45;;;;;;;2.38;1.70;;;;;;;;;;4998948;28;20046;-87
2022/12/26 08:28:12;;;;;;;2.70;2.08;;;;;;;;;;5015656;28;20056;-87
2022/12/26 08:30:40;;;;;;;3.50;1.77;;;;;;;;;;5015945;28;20049;-87
2022/12/26 08:33:08;;;;;;;2.92;1.85;;;;;;;;;;4999229;28;20041;-87
2022/12/26 08:35:35;;;;;;;3.03;1.80;;;;;;;;;;4998749;28;20050;-86
2022/12/26 08:38:03;;;;;;;1.92;1.67;;;;;;;;;;5015773;28;20068;-86
2022/12/26 08:40:30;;;;;;;2.65;2.20;;;;;;;;;;4998872;28;20052;-87
2022/12/26 08:43:09;;;;;;;1.92;1.63;;;;;;;;;;5000526;28;20046;-87
2022/12/26 08:45:57;;;;;;;7.70;2.45;;;;;;;;;;5001135;28;20056;-87
2022/12/26 08:48:25;;;;;;;4.95;2.00;;;;;;;;;;4998543;28;20149;-87
2022/12/26 08:51:05;;;;;;;2.53;2.25;;;;;;;;;;4998564;28;20078;-87
2022/12/26 08:53:34;;;;;;;2.67;2.10;;;;;;;;;;4998046;28;20058;-86
2022/12/26 08:56:02;;;;;;;2.75;1.98;;;;;;;;;;4998465;28;20041;-87
2022/12/26 08:58:30;;;;;;;2.53;1.88;;;;;;;;;;4998052;28;20049;-88
2022/12/26 09:01:24;;;;;;;3.40;2.20;;;;;;;;;;4998115;28;20057;-87
2022/12/26 09:03:59;;;;;;;2.45;1.75;;;;;;;;;;5012294;28;20482;-87
2022/12/26 09:06:27;;;;;;;4.13;1.88;;;;;;;;;;4998340;28;20054;-86
2022/12/26 09:08:58;;;;;;;3.08;2.28;;;;;;;;;;4998586;28;20076;-86
2022/12/26 09:11:25;;;;;;;2.35;2.00;;;;;;;;;;4997804;28;20061;-87
2022/12/26 09:13:53;;;;;;;3.50;2.30;;;;;;;;;;4998184;28;20053;-85
2022/12/26 09:16:22;;;;;;;4.95;2.80;;;;;;;;;;4997958;28;20056;-87
2022/12/26 09:18:53;;;;;;;3.25;1.92;;;;;;;;;;4997656;28;20050;-87
2022/12/26 09:21:20;;;;;;;2.92;2.13;;;;;;;;;;4996296;28;20149;-87
2022/12/26 09:23:47;;;;;;;3.42;2.13;;;;;;;;;;5013681;28;20049;-87
2022/12/26 09:26:16;;;;;;;1.95;1.80;;;;;;;;;;4984503;28;20046;-88
2022/12/26 09:28:44;;;;;;;3.42;1.90;;;;;;;;;;4985793;28;20512;-87
2022/12/26 09:31:17;;;;;;;2.92;2.10;;;;;;;;;;4996826;28;20060;-87
2022/12/26 09:33:46;;;;;;;3.67;1.95;;;;;;;;;;4997088;28;20548;-87
2022/12/26 09:36:14;;;;;;;2.60;2.10;;;;;;;;;;4983920;28;20089;-87
2022/12/26 09:38:42;;;;;;;3.10;2.80;;;;;;;;;;4995971;28;20085;-87
2022/12/26 09:41:13;;;;;;;1.92;1.75;;;;;;;;;;4996588;28;20071;-87
2022/12/26 09:43:48;;;;;;;3.20;2.03;;;;;;;;;;5013206;28;20137;-87
2022/12/26 09:46:22;;;;;;;4.72;2.47;;;;;;;;;;4996841;28;20049;-86
2022/12/26 09:49:09;;;;;;;4.72;2.72;;;;;;;;;;5013550;28;20368;-87
2022/12/26 09:51:38;;;;;;;3.22;1.70;;;;;;;;;;5013362;28;20145;-87
2022/12/26 09:54:06;;;;;;;2.00;1.90;;;;;;;;;;5013018;28;20050;-86
2022/12/26 09:56:37;;;;;;;2.72;2.50;;;;;;;;;;5014075;28;20056;-87
2022/12/26 09:59:25;;;;;;;2.78;2.58;;;;;;;;;;4998968;28;20053;-87
2022/12/26 10:01:52;;;;;;;5.03;3.17;;;;;;;;;;4996092;28;20046;-87
2022/12/26 10:04:25;;;;;;;4.18;3.17;;;;;;;;;;5011839;28;20054;-87
2022/12/26 10:07:12;;;;;;;2.53;2.28;;;;;;;;;;5013406;28;20057;-87
2022/12/26 10:09:39;;;;;;;2.90;2.70;;;;;;;;;;5013346;28;20049;-87
2022/12/26 10:12:21;;;;;;;1.77;1.60;;;;;;;;;;4996023;28;20057;-86
2022/12/26 10:14:48;;;;;;;1.35;1.25;;;;;;;;;;5013490;28;20137;-87
2022/12/26 10:17:32;;;;;;;2.35;1.20;;;;;;;;;;5013018;28;20049;-86
2022/12/26 10:20:05;;;;;;;2.08;1.80;;;;;;;;;;4995899;28;20498;-86
2022/12/26 10:22:50;;;;;;;1.90;1.30;;;;;;;;;;5013323;28;20054;-87
2022/12/26 10:25:21;;;;;;;7.85;1.88;;;;;;;;;;5012928;28;20065;-87
2022/12/26 10:27:49;;;;;;;2.92;1.48;;;;;;;;;;4996116;28;20560;-87
2022/12/26 10:30:20;;;;;;;10.05;1.85;;;;;;;;;;4995755;28;20081;-87
2022/12/26 10:32:51;;;;;;;1.75;1.60;;;;;;;;;;4996125;28;20052;-87
2022/12/26 10:35:21;;;;;;;2.03;1.70;;;;;;;;;;4995544;28;20050;-87
2022/12/26 10:37:50;;;;;;;3.17;1.42;;;;;;;;;;4995245;28;20050;-86
2022/12/26 10:40:22;;;;;;;2.63;2.17;;;;;;;;;;4995813;28;20050;-87
2022/12/26 10:42:57;;;;;;;2.67;1.95;;;;;;;;;;4995531;28;20049;-86
2022/12/26 10:45:50;;;;;;;2.28;2.08;;;;;;;;;;4995618;28;20084;-87
2022/12/26 10:48:17;;;;;;;2.72;1.90;;;;;;;;;;4995729;28;20397;-86
2022/12/26 10:50:47;;;;;;;3.05;1.40;;;;;;;;;;4995684;28;20128;-86
2022/12/26 10:53:15;;;;;;;1.63;1.42;;;;;;;;;;4995701;28;20085;-87
2022/12/26 10:55:43;;;;;;;3.13;1.95;;;;;;;;;;5012350;28;20449;-86
2022/12/26 10:58:11;;;;;;;1.95;1.83;;;;;;;;;;4995428;28;20054;-87
2022/12/26 11:00:38;;;;;;;1.98;1.40;;;;;;;;;;5017532;28;20046;-86
2022/12/26 11:03:06;;;;;;;2.65;1.13;;;;;;;;;;5032192;28;20046;-86
2022/12/26 11:05:36;;;;;;;1.38;1.27;;;;;;;;;;5015281;28;20050;-86
2022/12/26 11:08:25;;;;;;;2.85;2.60;;;;;;;;;;5032495;28;20100;-86
2022/12/26 11:11:04;;;;;;;4.60;3.92;;;;;;;;;;5015159;28;20054;-86
2022/12/26 11:13:35;;;;;;;6.40;3.95;;;;;;;;;;5015353;28;20045;-86
2022/12/26 11:16:02;;;;;;;1.20;1.13;;;;;;;;;;5014772;28;20053;-87
2022/12/26 11:18:49;;;;;;;1.00;1.00;;;;;;;;;;5014886;28;20057;-87
2022/12/26 11:21:22;;;;;;;4.53;1.42;;;;;;;;;;5014844;28;20057;-87
2022/12/26 11:23:54;;;;;;;1.92;1.80;;;;;;;;;;5032174;28;20153;-86
2022/12/26 11:26:23;;;;;;;1.50;1.40;;;;;;;;;;5015041;28;20049;-87
2022/12/26 11:29:09;;;;;;;2.65;1.52;;;;;;;;;;5014870;28;20046;-87
2022/12/26 11:31:38;;;;;;;1.05;1.00;;;;;;;;;;5014927;28;20048;-87
2022/12/26 11:34:10;;;;;;;1.33;1.23;;;;;;;;;;5032306;28;20061;-87
2022/12/26 11:36:39;;;;;;;0.98;0.88;;;;;;;;;;5014850;28;20049;-87
2022/12/26 11:39:18;;;;;;;0.47;0.45;;;;;;;;;;5015101;28;20050;-87
2022/12/26 11:41:48;;;;;;;0.40;0.40;;;;;;;;;;5014300;28;20059;-87
2022/12/26 11:44:17;;;;;;;0.68;0.40;;;;;;;;;;5014358;28;20406;-87
2022/12/26 11:46:47;;;;;;;0.20;0.20;;;;;;;;;;5032075;28;20476;-87
2022/12/26 11:49:27;;;;;;;1.88;0.30;;;;;;;;;;5034605;28;20061;-87
2022/12/26 11:51:54;;;;;;;0.35;0.35;;;;;;;;;;5018428;28;20048;-87
2022/12/26 11:54:31;;;;;;;1.23;0.40;;;;;;;;;;5035673;28;20061;-86
2022/12/26 11:57:00;;;;;;;0.22;0.22;;;;;;;;;;5018368;28;20053;-86
2022/12/26 11:59:28;;;;;;;0.47;0.40;;;;;;;;;;5018352;28;20489;-87
2022/12/26 12:02:24;;;;;;;1.38;0.50;;;;;;;;;;5036072;28;20049;-88
2022/12/26 12:04:54;;;;;;;0.30;0.30;;;;;;;;;;4996618;28;20061;-88
2022/12/26 12:07:33;;;;;;;0.70;0.50;;;;;;;;;;5018083;28;20049;-88
2022/12/26 12:10:03;;;;;;;0.60;0.47;;;;;;;;;;5018230;28;20128;-89
2022/12/26 12:12:49;;;;;;;0.38;0.38;;;;;;;;;;5018416;28;20064;-89
2022/12/26 12:15:22;;;;;;;3.28;2.78;;;;;;;;;;5018132;28;20048;-88
2022/12/26 12:17:49;;;;;;;3.22;3.03;;;;;;;;;;5018385;28;20049;-89
2022/12/26 12:20:19;;;;;;;6.40;5.30;;;;;;;;;;5035308;28;20383;-89
2022/12/26 12:22:57;;;;;;;4.28;3.88;;;;;;;;;;5035684;28;20057;-89
2022/12/26 12:25:43;;;;;;;6.18;3.60;;;;;;;;;;5018083;28;20128;-88
2022/12/26 12:28:23;;;;;;;4.40;3.85;;;;;;;;;;5018146;28;20057;-89
2022/12/26 12:31:12;;;;;;;5.70;3.83;;;;;;;;;;5017980;28;20131;-89
2022/12/26 12:33:50;;;;;;;2.78;2.40;;;;;;;;;;5018035;28;20084;-89
2022/12/26 12:36:21;;;;;;;2.70;2.22;;;;;;;;;;5017641;28;20076;-89
2022/12/26 12:38:57;;;;;;;2.90;2.30;;;;;;;;;;5017984;28;20041;-89
2022/12/26 12:41:31;;;;;;;3.13;2.92;;;;;;;;;;5017178;28;20053;-89
2022/12/26 12:44:04;;;;;;;5.75;3.03;;;;;;;;;;5017735;28;20095;-89
2022/12/26 12:46:32;;;;;;;;;;;;;;;;;;5017402;28;20056;-89
2022/12/26 12:49:18;;;;;;;3.75;3.20;;;;;;;;;;5024601;28;20011;-91
2022/12/26 12:52:02;;;;;;;5.05;2.97;;;;;;;;;;5052404;28;20052;-91
2022/12/26 12:54:40;;;;;;;4.45;3.28;;;;;;;;;;5031473;28;20061;-92
2022/12/26 12:57:23;;;;;;;6.85;6.25;;;;;;;;;;5032802;28;20046;-92
2022/12/26 13:00:00;;;;;;;8.35;6.10;;;;;;;;;;5031612;28;20054;-92
2022/12/26 13:02:36;;;;;;;6.25;5.65;;;;;;;;;;5025193;28;20104;-92
2022/12/26 13:05:18;;;;;;;2.90;2.08;;;;;;;;;;5014833;28;20149;-92
2022/12/26 13:07:49;;;;;;;1.75;1.40;;;;;;;;;;5013741;28;20461;-93
2022/12/26 13:10:20;;;;;;;2.67;1.60;;;;;;;;;;5013316;28;20064;-94
2022/12/26 13:12:49;;;;;;;3.45;3.15;;;;;;;;;;5013481;28;20052;-94
2022/12/26 13:15:30;;;;;;;6.00;4.88;;;;;;;;;;5013418;28;20056;-92
2022/12/26 13:17:58;;;;;;;5.15;4.65;;;;;;;;;;5013522;28;20064;-92
2022/12/26 13:20:29;;;;;;;5.00;4.60;;;;;;;;;;5013616;28;20379;-92
2022/12/26 13:25:48;;;;;;;2.85;2.65;;;;;;;;;;5014246;28;20049;-92
2022/12/26 13:28:19;;;;;;;3.20;2.53;;;;;;;;;;5012718;28;20052;-92
2022/12/26 13:30:52;;;;;;;3.42;3.03;;;;;;;;;;5013834;28;20081;-93
2022/12/26 13:33:19;;;;;;;4.70;3.00;;;;;;;;;;5013892;28;20042;-93
2022/12/26 13:35:56;;;;;;;3.88;3.35;;;;;;;;;;5013712;28;20549;-93
2022/12/26 13:38:24;;;;;;;6.63;5.72;;;;;;;;;;5014078;28;20478;-92
2022/12/26 13:44:07;;;;;;;3.97;3.60;;;;;;;;;;5014947;28;20058;-91
2022/12/26 13:46:37;;;;;;;10.27;8.20;;;;;;;;;;5013707;28;20140;-92
2022/12/26 13:49:04;;;;;;;8.18;6.95;;;;;;;;;;5013428;28;20050;-91
2022/12/26 13:51:46;;;;;;;8.68;5.65;;;;;;;;;;5014169;28;20061;-91
2022/12/26 13:54:14;;;;;;;9.48;4.80;;;;;;;;;;5013285;28;20058;-90
2022/12/26 13:56:43;;;;;;;11.10;6.53;;;;;;;;;;5019999;28;20133;-94
2022/12/26 13:59:35;;;;;;;13.95;9.20;;;;;;;;;;5026991;28;20129;-94
2022/12/26 14:02:37;;;;;;;12.38;8.90;;;;;;;;;;5026159;28;20133;-94
2022/12/26 14:05:43;;;;;;;6.72;5.43;;;;;;;;;;5024470;28;20037;-95
2022/12/26 14:08:33;;;;;;;11.57;6.32;;;;;;;;;;5026365;28;20093;-94
2022/12/26 14:11:24;;;;;;;7.28;6.30;;;;;;;;;;5027961;28;20050;-94
2022/12/26 14:14:30;;;;;;;10.60;8.77;;;;;;;;;;5031769;28;20113;-93
2022/12/26 14:17:27;;;;;;;10.27;8.57;;;;;;;;;;4980975;28;20033;-93
2022/12/26 14:20:06;;;;;;;8.25;7.43;;;;;;;;;;5021765;28;20069;-93
2022/12/26 14:22:46;;;;;;;9.38;7.97;;;;;;;;;;5029578;28;20078;-93
2022/12/26 14:25:19;;;;;;;5.72;5.13;;;;;;;;;;5028282;28;20064;-93
2022/12/26 14:28:11;;;;;;;5.93;5.43;;;;;;;;;;5030881;28;20049;-92
2022/12/26 14:31:05;;;;;;;6.10;5.60;;;;;;;;;;5030183;28;20080;-94
2022/12/26 14:33:33;;;;;;;;;;;;;;;;;;5008848;28;20073;-93
2022/12/26 14:36:11;;;;;;;4.32;3.30;;;;;;;;;;5029156;28;19921;-93
2022/12/26 14:38:45;;;;;;;4.28;3.20;;;;;;;;;;5025374;28;20065;-93
2022/12/26 14:44:19;;;;;;;3.92;3.55;;;;;;;;;;5029293;28;20103;-94
2022/12/26 14:46:50;;;;;;;5.07;4.38;;;;;;;;;;5026646;28;20049;-93
2022/12/26 14:49:21;;;;;;;4.75;4.20;;;;;;;;;;5027096;28;20057;-93
2022/12/26 14:51:49;;;;;;;4.40;3.70;;;;;;;;;;5029557;28;20085;-93
2022/12/26 14:54:33;;;;;;;5.70;3.70;;;;;;;;;;5028453;28;20085;-93
2022/12/26 14:57:22;;;;;;;6.57;5.70;;;;;;;;;;5028223;28;20094;-94
2022/12/26 15:00:09;;;;;;;5.50;4.65;;;;;;;;;;5028757;28;20081;-94
2022/12/26 15:02:38;;;;;;;3.88;3.58;;;;;;;;;;5026215;28;20494;-93
2022/12/26 15:05:09;;;;;;;6.82;6.10;;;;;;;;;;5028954;28;20057;-93
2022/12/26 15:07:57;;;;;;;6.47;5.07;;;;;;;;;;5022749;28;20042;-93
2022/12/26 15:10:35;;;;;;;4.25;3.85;;;;;;;;;;5009295;28;20107;-94
2022/12/26 15:13:21;;;;;;;5.20;4.30;;;;;;;;;;5005400;28;20046;-94
2022/12/26 15:15:52;;;;;;;6.63;3.72;;;;;;;;;;5007566;28;20054;-93
2022/12/26 15:18:37;;;;;;;5.45;4.43;;;;;;;;;;5007891;28;20046;-93
2022/12/26 15:21:29;;;;;;;4.03;3.58;;;;;;;;;;5006457;28;20050;-94
2022/12/26 15:24:17;;;;;;;5.35;3.85;;;;;;;;;;5010028;28;20062;-93
2022/12/26 15:26:44;;;;;;;4.28;3.03;;;;;;;;;;4980819;28;20483;-93
2022/12/26 15:29:15;;;;;;;8.15;3.97;;;;;;;;;;5005920;28;20046;-92
2022/12/26 15:31:45;;;;;;;3.15;2.95;;;;;;;;;;5006102;28;20054;-94
2022/12/26 15:34:31;;;;;;;4.13;3.80;;;;;;;;;;5003513;28;20455;-93
2022/12/26 15:37:11;;;;;;;7.68;3.58;;;;;;;;;;5006584;28;20050;-93
2022/12/26 15:39:42;;;;;;;4.93;4.53;;;;;;;;;;5009484;28;20137;-93
2022/12/26 15:42:12;;;;;;;6.70;3.40;;;;;;;;;;5015144;28;20524;-93
2022/12/26 15:44:46;;;;;;;5.55;4.35;;;;;;;;;;5001439;28;20112;-93
2022/12/26 15:47:26;;;;;;;5.32;3.70;;;;;;;;;;5003015;28;20406;-94
2022/12/26 15:50:03;;;;;;;3.13;2.80;;;;;;;;;;5001155;28;20133;-94
2022/12/26 15:52:34;;;;;;;8.45;7.60;;;;;;;;;;5006281;28;20089;-93
2022/12/26 15:55:12;;;;;;;8.60;6.35;;;;;;;;;;5009317;28;20062;-93
2022/12/26 15:58:00;;;;;;;7.55;6.60;;;;;;;;;;5004592;28;20054;-92
2022/12/26 16:00:32;;;;;;;2.90;2.58;;;;;;;;;;5001805;28;20085;-93
2022/12/26 16:03:05;;;;;;;0.60;0.60;;;;;;;;;;4999080;28;20080;-93
2022/12/26 16:05:43;;;;;;;1.60;1.50;;;;;;;;;;5002762;28;20092;-93
2022/12/26 16:08:26;;;;;;;1.02;0.80;;;;;;;;;;5004590;28;20495;-93
2022/12/26 16:11:13;;;;;;;3.15;0.65;;;;;;;;;;5002067;28;20114;-93
2022/12/26 16:13:54;;;;;;;1.80;0.98;;;;;;;;;;5005526;28;20414;-94
2022/12/26 16:16:25;;;;;;;3.35;0.63;;;;;;;;;;5001361;28;20046;-95
2022/12/26 16:18:53;;;;;;;0.75;0.65;;;;;;;;;;4999143;28;20054;-94
2022/12/26 16:24:07;;;;;;;2.30;0.70;;;;;;;;;;5000011;28;20058;-95
2022/12/26 16:26:38;;;;;;;3.47;0.63;;;;;;;;;;5002958;28;20057;-94
2022/12/26 16:29:07;;;;;;;3.88;0.50;;;;;;;;;;5002111;28;20058;-94
2022/12/26 16:31:39;;;;;;;0.28;0.28;;;;;;;;;;5003612;28;20463;-95
2022/12/26 16:34:20;;;;;;;0.77;0.30;;;;;;;;;;5001360;28;20157;-94
2022/12/26 16:36:52;;;;;;;1.88;1.10;;;;;;;;;;5002391;28;20053;-96
2022/12/26 16:39:27;;;;;;;0.40;0.40;;;;;;;;;;4998810;28;20062;-95
2022/12/26 16:42:06;;;;;;;0.30;0.30;;;;;;;;;;5002326;28;20070;-95
2022/12/26 16:44:33;;;;;;;0.43;0.43;;;;;;;;;;5002756;28;20054;-93
2022/12/26 16:47:05;;;;;;;1.35;0.73;;;;;;;;;;4996525;28;20047;-95
2022/12/26 16:49:33;;;;;;;1.05;0.40;;;;;;;;;;5002145;28;20116;-94
2022/12/26 16:52:01;;;;;;;0.50;0.50;;;;;;;;;;4999938;28;20388;-95
2022/12/26 16:54:37;;;;;;;0.20;0.20;;;;;;;;;;5000215;28;20482;-95
2022/12/26 16:57:04;;;;;;;1.85;0.60;;;;;;;;;;5001718;28;20050;-94
2022/12/26 16:59:53;;;;;;;0.68;0.68;;;;;;;;;;5000551;28;20197;-95
2022/12/26 17:02:24;;;;;;;0.75;0.75;;;;;;;;;;5002389;28;20057;-94
2022/12/26 17:05:05;;;;;;;0.57;0.57;;;;;;;;;;5000750;28;20058;-94
2022/12/26 17:07:35;;;;;;;1.35;1.25;;;;;;;;;;4997924;28;20462;-95
2022/12/26 17:10:03;;;;;;;2.67;1.20;;;;;;;;;;4997081;28;20145;-93
2022/12/26 17:12:38;;;;;;;1.20;1.10;;;;;;;;;;4999407;28;20549;-94
2022/12/26 17:15:06;;;;;;;2.03;1.92;;;;;;;;;;4994951;28;20046;-93
2022/12/26 17:17:35;;;;;;;1.77;1.67;;;;;;;;;;4995639;28;20104;-94
2022/12/26 17:20:21;;;;;;;1.73;1.30;;;;;;;;;;4997405;28;20092;-93
2022/12/26 17:22:49;;;;;;;2.50;2.25;;;;;;;;;;4994805;28;20060;-93
2022/12/26 17:25:16;;;;;;;2.60;2.40;;;;;;;;;;4994667;28;20050;-93
2022/12/26 17:27:44;;;;;;;2.33;1.80;;;;;;;;;;4995081;28;20105;-94
2022/12/26 17:30:27;;;;;;;2.80;2.35;;;;;;;;;;4994567;28;20474;-94
2022/12/26 17:32:55;;;;;;;2.58;2.38;;;;;;;;;;4994705;28;20487;-94
2022/12/26 17:35:24;;;;;;;2.60;1.98;;;;;;;;;;4994371;28;20093;-94